Saginaw, Minnesota
Current Conditions -  °F | °C
As of 7:55 AM on Sunday 25 Jan 2015 (Local Time) from KDLH Reporting Station
Light Snow Light Snow  
Wind Chill:   Ceiling: 1600
Heat Index: 17°   Visibility: 8mi
Dew Point: 12°   Wind: 9mph
Humidity: 81%   Direction: 50°NE
Pressure: 29.96"   Gusts: NA
Location:  46.86°N, 92.45°W
Report Text: KDLH 251355Z 05008KT 8SM -SN OVC016 M08/M11 A2996 RMK AO2 SLP173 P0000 T10831111
Loading
Personal Weather Stations






























Interactive Weather Map New forecast layout! Learn more

10-Day Weather Forecast

Advertisements
Track Severe Weather on mobile